sensor_id;sensor_type;location;lat;lon;timestamp;P1;durP1;ratioP1;P2;durP2;ratioP2
15110;SDS011;7656;51.954;7.998;2023-10-08T00:01:21;9.90;;;4.80;;
15110;SDS011;7656;51.954;7.998;2023-10-08T00:05:42;12.97;;;5.07;;
15110;SDS011;7656;51.954;7.998;2023-10-08T00:10:03;10.43;;;4.67;;
15110;SDS011;7656;51.954;7.998;2023-10-08T00:14:25;10.13;;;4.13;;
15110;SDS011;7656;51.954;7.998;2023-10-08T00:18:48;7.73;;;4.17;;
15110;SDS011;7656;51.954;7.998;2023-10-08T00:23:09;7.53;;;3.70;;
15110;SDS011;7656;51.954;7.998;2023-10-08T00:27:30;7.30;;;3.90;;
15110;SDS011;7656;51.954;7.998;2023-10-08T00:31:59;10.03;;;4.30;;
15110;SDS011;7656;51.954;7.998;2023-10-08T00:36:23;9.50;;;4.70;;
15110;SDS011;7656;51.954;7.998;2023-10-08T00:40:44;11.43;;;4.77;;
15110;SDS011;7656;51.954;7.998;2023-10-08T00:45:06;9.17;;;4.33;;
15110;SDS011;7656;51.954;7.998;2023-10-08T00:49:29;11.33;;;4.20;;
15110;SDS011;7656;51.954;7.998;2023-10-08T00:54:03;9.67;;;3.93;;
15110;SDS011;7656;51.954;7.998;2023-10-08T00:58:28;7.20;;;3.93;;
15110;SDS011;7656;51.954;7.998;2023-10-08T01:02:49;10.90;;;4.10;;
15110;SDS011;7656;51.954;7.998;2023-10-08T01:07:15;8.30;;;4.30;;
15110;SDS011;7656;51.954;7.998;2023-10-08T01:11:37;10.17;;;4.23;;
15110;SDS011;7656;51.954;7.998;2023-10-08T01:16:09;8.13;;;4.23;;
15110;SDS011;7656;51.954;7.998;2023-10-08T01:20:31;10.63;;;4.17;;
15110;SDS011;7656;51.954;7.998;2023-10-08T01:24:59;13.57;;;4.10;;
15110;SDS011;7656;51.954;7.998;2023-10-08T01:29:22;10.10;;;3.90;;
15110;SDS011;7656;51.954;7.998;2023-10-08T01:33:45;8.70;;;4.43;;
15110;SDS011;7656;51.954;7.998;2023-10-08T01:38:16;10.77;;;4.50;;
15110;SDS011;7656;51.954;7.998;2023-10-08T01:42:44;8.67;;;4.47;;
15110;SDS011;7656;51.954;7.998;2023-10-08T01:47:17;12.17;;;4.77;;
15110;SDS011;7656;51.954;7.998;2023-10-08T01:51:46;11.47;;;4.87;;
15110;SDS011;7656;51.954;7.998;2023-10-08T01:56:07;9.50;;;4.23;;
15110;SDS011;7656;51.954;7.998;2023-10-08T02:00:31;10.90;;;4.30;;
15110;SDS011;7656;51.954;7.998;2023-10-08T02:04:54;12.97;;;5.20;;
15110;SDS011;7656;51.954;7.998;2023-10-08T02:09:17;11.20;;;4.17;;
15110;SDS011;7656;51.954;7.998;2023-10-08T02:13:48;0.83;;;0.70;;
15110;SDS011;7656;51.954;7.998;2023-10-08T02:18:11;0.53;;;0.53;;
15110;SDS011;7656;51.954;7.998;2023-10-08T02:22:34;0.30;;;0.30;;
15110;SDS011;7656;51.954;7.998;2023-10-08T02:26:56;0.43;;;0.43;;
15110;SDS011;7656;51.954;7.998;2023-10-08T02:31:20;0.47;;;0.47;;
15110;SDS011;7656;51.954;7.998;2023-10-08T02:35:46;0.30;;;0.30;;
15110;SDS011;7656;51.954;7.998;2023-10-08T02:40:10;0.43;;;0.43;;
15110;SDS011;7656;51.954;7.998;2023-10-08T02:44:50;0.30;;;0.30;;
15110;SDS011;7656;51.954;7.998;2023-10-08T02:49:22;0.13;;;0.13;;
15110;SDS011;7656;51.954;7.998;2023-10-08T02:53:44;0.50;;;0.20;;
15110;SDS011;7656;51.954;7.998;2023-10-08T02:58:11;0.20;;;0.20;;
15110;SDS011;7656;51.954;7.998;2023-10-08T03:02:42;0.10;;;0.10;;
15110;SDS011;7656;51.954;7.998;2023-10-08T03:07:04;1.13;;;0.30;;
15110;SDS011;7656;51.954;7.998;2023-10-08T03:11:34;0.10;;;0.10;;
15110;SDS011;7656;51.954;7.998;2023-10-08T03:15:58;0.10;;;0.10;;
15110;SDS011;7656;51.954;7.998;2023-10-08T03:20:27;0.50;;;0.20;;
15110;SDS011;7656;51.954;7.998;2023-10-08T03:24:59;0.17;;;0.17;;
15110;SDS011;7656;51.954;7.998;2023-10-08T03:29:36;0.10;;;0.10;;
15110;SDS011;7656;51.954;7.998;2023-10-08T03:34:05;0.10;;;0.10;;
15110;SDS011;7656;51.954;7.998;2023-10-08T03:38:28;0.10;;;0.10;;
15110;SDS011;7656;51.954;7.998;2023-10-08T03:43:05;0.10;;;0.10;;
15110;SDS011;7656;51.954;7.998;2023-10-08T03:47:36;0.13;;;0.13;;
15110;SDS011;7656;51.954;7.998;2023-10-08T03:52:07;0.20;;;0.20;;
15110;SDS011;7656;51.954;7.998;2023-10-08T03:56:34;0.20;;;0.20;;
15110;SDS011;7656;51.954;7.998;2023-10-08T04:00:57;0.10;;;0.10;;
15110;SDS011;7656;51.954;7.998;2023-10-08T04:05:35;0.10;;;0.10;;
15110;SDS011;7656;51.954;7.998;2023-10-08T04:10:22;0.20;;;0.20;;
15110;SDS011;7656;51.954;7.998;2023-10-08T04:14:59;0.20;;;0.20;;
15110;SDS011;7656;51.954;7.998;2023-10-08T04:19:33;0.20;;;0.20;;
15110;SDS011;7656;51.954;7.998;2023-10-08T04:23:55;0.27;;;0.27;;
15110;SDS011;7656;51.954;7.998;2023-10-08T04:28:21;0.40;;;0.37;;
15110;SDS011;7656;51.954;7.998;2023-10-08T04:32:50;0.30;;;0.30;;
15110;SDS011;7656;51.954;7.998;2023-10-08T04:37:16;2.37;;;0.60;;
15110;SDS011;7656;51.954;7.998;2023-10-08T04:41:41;1.87;;;0.50;;
15110;SDS011;7656;51.954;7.998;2023-10-08T04:46:17;0.40;;;0.20;;
15110;SDS011;7656;51.954;7.998;2023-10-08T04:50:44;1.57;;;0.40;;
15110;SDS011;7656;51.954;7.998;2023-10-08T04:55:12;0.40;;;0.40;;
15110;SDS011;7656;51.954;7.998;2023-10-08T04:59:39;1.23;;;0.53;;
15110;SDS011;7656;51.954;7.998;2023-10-08T05:04:05;2.10;;;0.53;;
15110;SDS011;7656;51.954;7.998;2023-10-08T05:08:44;0.80;;;0.50;;
15110;SDS011;7656;51.954;7.998;2023-10-08T05:13:19;1.40;;;0.60;;
15110;SDS011;7656;51.954;7.998;2023-10-08T05:17:51;2.03;;;0.80;;
15110;SDS011;7656;51.954;7.998;2023-10-08T05:22:16;2.03;;;0.70;;
15110;SDS011;7656;51.954;7.998;2023-10-08T05:26:39;0.77;;;0.77;;
15110;SDS011;7656;51.954;7.998;2023-10-08T05:31:07;2.10;;;0.73;;
15110;SDS011;7656;51.954;7.998;2023-10-08T05:35:52;1.50;;;0.50;;
15110;SDS011;7656;51.954;7.998;2023-10-08T05:40:34;1.07;;;0.87;;
15110;SDS011;7656;51.954;7.998;2023-10-08T05:45:15;2.80;;;0.93;;
15110;SDS011;7656;51.954;7.998;2023-10-08T05:49:52;3.13;;;1.07;;
15110;SDS011;7656;51.954;7.998;2023-10-08T05:54:32;0.97;;;0.60;;
15110;SDS011;7656;51.954;7.998;2023-10-08T05:59:08;1.47;;;0.80;;
15110;SDS011;7656;51.954;7.998;2023-10-08T06:03:39;2.70;;;0.70;;
15110;SDS011;7656;51.954;7.998;2023-10-08T06:08:21;2.03;;;0.87;;
15110;SDS011;7656;51.954;7.998;2023-10-08T06:13:09;4.73;;;1.10;;
15110;SDS011;7656;51.954;7.998;2023-10-08T06:17:34;4.00;;;1.00;;
15110;SDS011;7656;51.954;7.998;2023-10-08T06:22:16;2.57;;;1.00;;
15110;SDS011;7656;51.954;7.998;2023-10-08T06:26:39;3.13;;;1.60;;
15110;SDS011;7656;51.954;7.998;2023-10-08T06:31:03;2.40;;;1.03;;
15110;SDS011;7656;51.954;7.998;2023-10-08T06:35:38;5.57;;;0.90;;
15110;SDS011;7656;51.954;7.998;2023-10-08T06:40:05;2.53;;;1.00;;
15110;SDS011;7656;51.954;7.998;2023-10-08T06:44:47;2.33;;;0.87;;
15110;SDS011;7656;51.954;7.998;2023-10-08T06:49:08;1.70;;;1.10;;
15110;SDS011;7656;51.954;7.998;2023-10-08T06:53:33;2.20;;;1.20;;
15110;SDS011;7656;51.954;7.998;2023-10-08T06:57:55;4.87;;;1.17;;
15110;SDS011;7656;51.954;7.998;2023-10-08T07:02:16;1.53;;;0.90;;
15110;SDS011;7656;51.954;7.998;2023-10-08T07:06:41;1.47;;;0.90;;
15110;SDS011;7656;51.954;7.998;2023-10-08T07:11:03;2.93;;;1.13;;
15110;SDS011;7656;51.954;7.998;2023-10-08T07:15:31;1.70;;;0.90;;
15110;SDS011;7656;51.954;7.998;2023-10-08T07:19:53;3.67;;;1.17;;
15110;SDS011;7656;51.954;7.998;2023-10-08T07:24:14;2.27;;;1.17;;
15110;SDS011;7656;51.954;7.998;2023-10-08T07:28:38;1.27;;;1.17;;
15110;SDS011;7656;51.954;7.998;2023-10-08T07:33:02;0.60;;;0.60;;
15110;SDS011;7656;51.954;7.998;2023-10-08T07:37:24;1.20;;;0.90;;
15110;SDS011;7656;51.954;7.998;2023-10-08T07:41:46;3.10;;;1.17;;
15110;SDS011;7656;51.954;7.998;2023-10-08T07:46:08;2.03;;;1.60;;
15110;SDS011;7656;51.954;7.998;2023-10-08T07:50:30;4.47;;;1.27;;
15110;SDS011;7656;51.954;7.998;2023-10-08T07:54:51;2.63;;;1.20;;
15110;SDS011;7656;51.954;7.998;2023-10-08T07:59:14;2.10;;;1.30;;
15110;SDS011;7656;51.954;7.998;2023-10-08T08:03:36;1.30;;;0.97;;
15110;SDS011;7656;51.954;7.998;2023-10-08T08:07:57;1.50;;;0.90;;
15110;SDS011;7656;51.954;7.998;2023-10-08T08:12:26;1.60;;;1.13;;
15110;SDS011;7656;51.954;7.998;2023-10-08T08:16:49;1.90;;;0.97;;
15110;SDS011;7656;51.954;7.998;2023-10-08T08:21:10;2.13;;;1.17;;
15110;SDS011;7656;51.954;7.998;2023-10-08T08:25:39;4.23;;;1.53;;
15110;SDS011;7656;51.954;7.998;2023-10-08T08:30:21;2.23;;;1.20;;
15110;SDS011;7656;51.954;7.998;2023-10-08T08:34:47;1.50;;;1.20;;
15110;SDS011;7656;51.954;7.998;2023-10-08T08:39:11;4.30;;;1.67;;
15110;SDS011;7656;51.954;7.998;2023-10-08T08:43:47;2.80;;;1.47;;
15110;SDS011;7656;51.954;7.998;2023-10-08T08:48:17;2.20;;;1.10;;
15110;SDS011;7656;51.954;7.998;2023-10-08T08:52:39;2.63;;;1.40;;
15110;SDS011;7656;51.954;7.998;2023-10-08T08:57:01;2.37;;;1.60;;
15110;SDS011;7656;51.954;7.998;2023-10-08T09:01:25;3.13;;;1.30;;
15110;SDS011;7656;51.954;7.998;2023-10-08T09:05:46;1.60;;;1.30;;
15110;SDS011;7656;51.954;7.998;2023-10-08T09:10:11;4.13;;;1.60;;
15110;SDS011;7656;51.954;7.998;2023-10-08T09:14:32;1.77;;;1.27;;
15110;SDS011;7656;51.954;7.998;2023-10-08T09:18:54;6.90;;;1.70;;
15110;SDS011;7656;51.954;7.998;2023-10-08T09:23:16;5.33;;;1.47;;
15110;SDS011;7656;51.954;7.998;2023-10-08T09:27:42;4.73;;;1.30;;
15110;SDS011;7656;51.954;7.998;2023-10-08T09:32:10;3.20;;;1.47;;
15110;SDS011;7656;51.954;7.998;2023-10-08T09:36:43;2.77;;;1.40;;
15110;SDS011;7656;51.954;7.998;2023-10-08T09:41:04;2.57;;;1.43;;
15110;SDS011;7656;51.954;7.998;2023-10-08T09:45:29;5.33;;;1.27;;
15110;SDS011;7656;51.954;7.998;2023-10-08T09:49:59;2.60;;;1.10;;
15110;SDS011;7656;51.954;7.998;2023-10-08T09:54:31;4.57;;;1.60;;
15110;SDS011;7656;51.954;7.998;2023-10-08T09:59:05;2.53;;;1.67;;
15110;SDS011;7656;51.954;7.998;2023-10-08T10:03:29;4.80;;;1.60;;
15110;SDS011;7656;51.954;7.998;2023-10-08T10:07:55;6.47;;;2.10;;
15110;SDS011;7656;51.954;7.998;2023-10-08T10:12:18;4.53;;;1.67;;
15110;SDS011;7656;51.954;7.998;2023-10-08T10:17:09;3.07;;;2.10;;
15110;SDS011;7656;51.954;7.998;2023-10-08T10:21:36;1.90;;;1.70;;
15110;SDS011;7656;51.954;7.998;2023-10-08T10:25:57;1.90;;;1.60;;
15110;SDS011;7656;51.954;7.998;2023-10-08T10:30:18;2.53;;;2.10;;
15110;SDS011;7656;51.954;7.998;2023-10-08T10:34:40;2.67;;;1.60;;
15110;SDS011;7656;51.954;7.998;2023-10-08T10:39:04;4.00;;;1.70;;
15110;SDS011;7656;51.954;7.998;2023-10-08T10:43:36;2.87;;;1.50;;
15110;SDS011;7656;51.954;7.998;2023-10-08T10:48:00;4.57;;;1.37;;
15110;SDS011;7656;51.954;7.998;2023-10-08T10:52:32;2.83;;;1.20;;
15110;SDS011;7656;51.954;7.998;2023-10-08T10:57:12;4.60;;;1.57;;
15110;SDS011;7656;51.954;7.998;2023-10-08T11:01:38;3.47;;;1.30;;
15110;SDS011;7656;51.954;7.998;2023-10-08T11:06:07;3.60;;;1.20;;
15110;SDS011;7656;51.954;7.998;2023-10-08T11:10:36;1.53;;;1.00;;
15110;SDS011;7656;51.954;7.998;2023-10-08T11:15:07;3.57;;;1.10;;
15110;SDS011;7656;51.954;7.998;2023-10-08T11:19:35;1.60;;;0.80;;
15110;SDS011;7656;51.954;7.998;2023-10-08T11:23:56;4.00;;;1.40;;
15110;SDS011;7656;51.954;7.998;2023-10-08T11:28:19;1.03;;;0.70;;
15110;SDS011;7656;51.954;7.998;2023-10-08T11:32:41;6.23;;;1.03;;
15110;SDS011;7656;51.954;7.998;2023-10-08T11:37:08;1.17;;;1.10;;
15110;SDS011;7656;51.954;7.998;2023-10-08T11:41:40;2.57;;;1.37;;
15110;SDS011;7656;51.954;7.998;2023-10-08T11:46:10;1.47;;;0.70;;
15110;SDS011;7656;51.954;7.998;2023-10-08T11:50:34;2.87;;;1.00;;
15110;SDS011;7656;51.954;7.998;2023-10-08T11:54:56;1.37;;;0.90;;
15110;SDS011;7656;51.954;7.998;2023-10-08T11:59:17;2.97;;;1.03;;
15110;SDS011;7656;51.954;7.998;2023-10-08T12:03:38;1.33;;;1.23;;
15110;SDS011;7656;51.954;7.998;2023-10-08T12:07:59;3.40;;;0.97;;
15110;SDS011;7656;51.954;7.998;2023-10-08T12:12:20;3.67;;;0.90;;
15110;SDS011;7656;51.954;7.998;2023-10-08T12:16:43;1.60;;;1.17;;
15110;SDS011;7656;51.954;7.998;2023-10-08T12:21:06;4.07;;;0.90;;
15110;SDS011;7656;51.954;7.998;2023-10-08T12:25:35;3.13;;;0.83;;
15110;SDS011;7656;51.954;7.998;2023-10-08T12:29:58;1.50;;;0.93;;
15110;SDS011;7656;51.954;7.998;2023-10-08T12:34:19;3.33;;;1.00;;
15110;SDS011;7656;51.954;7.998;2023-10-08T12:38:43;3.80;;;0.93;;
15110;SDS011;7656;51.954;7.998;2023-10-08T12:43:08;3.27;;;0.90;;
15110;SDS011;7656;51.954;7.998;2023-10-08T12:47:30;2.23;;;0.80;;
15110;SDS011;7656;51.954;7.998;2023-10-08T12:51:51;3.30;;;0.93;;
15110;SDS011;7656;51.954;7.998;2023-10-08T12:56:13;2.37;;;1.27;;
15110;SDS011;7656;51.954;7.998;2023-10-08T13:00:38;3.73;;;1.50;;
15110;SDS011;7656;51.954;7.998;2023-10-08T13:05:02;2.87;;;0.80;;
15110;SDS011;7656;51.954;7.998;2023-10-08T13:09:27;3.33;;;1.07;;
15110;SDS011;7656;51.954;7.998;2023-10-08T13:13:57;2.37;;;0.97;;
15110;SDS011;7656;51.954;7.998;2023-10-08T13:18:18;2.20;;;1.00;;
15110;SDS011;7656;51.954;7.998;2023-10-08T13:22:39;1.97;;;1.00;;
15110;SDS011;7656;51.954;7.998;2023-10-08T13:27:01;1.90;;;0.60;;
15110;SDS011;7656;51.954;7.998;2023-10-08T13:31:22;2.13;;;1.00;;
15110;SDS011;7656;51.954;7.998;2023-10-08T13:35:43;3.70;;;1.03;;
15110;SDS011;7656;51.954;7.998;2023-10-08T13:40:04;0.77;;;0.60;;
15110;SDS011;7656;51.954;7.998;2023-10-08T13:44:26;3.40;;;0.90;;
15110;SDS011;7656;51.954;7.998;2023-10-08T13:48:50;3.70;;;0.90;;
15110;SDS011;7656;51.954;7.998;2023-10-08T13:53:11;2.67;;;1.00;;
15110;SDS011;7656;51.954;7.998;2023-10-08T13:57:33;0.53;;;0.50;;
15110;SDS011;7656;51.954;7.998;2023-10-08T14:01:55;2.53;;;1.00;;
15110;SDS011;7656;51.954;7.998;2023-10-08T14:06:16;1.20;;;0.73;;
15110;SDS011;7656;51.954;7.998;2023-10-08T14:10:38;2.20;;;0.80;;
15110;SDS011;7656;51.954;7.998;2023-10-08T14:14:59;2.67;;;0.80;;
15110;SDS011;7656;51.954;7.998;2023-10-08T14:19:20;1.23;;;0.80;;
15110;SDS011;7656;51.954;7.998;2023-10-08T14:23:49;3.77;;;0.90;;
15110;SDS011;7656;51.954;7.998;2023-10-08T14:28:12;3.17;;;0.90;;
15110;SDS011;7656;51.954;7.998;2023-10-08T14:32:42;1.10;;;0.80;;
15110;SDS011;7656;51.954;7.998;2023-10-08T14:37:06;3.13;;;0.90;;
15110;SDS011;7656;51.954;7.998;2023-10-08T14:41:45;1.17;;;0.67;;
15110;SDS011;7656;51.954;7.998;2023-10-08T14:46:25;2.63;;;1.00;;
15110;SDS011;7656;51.954;7.998;2023-10-08T14:50:47;4.83;;;1.20;;
15110;SDS011;7656;51.954;7.998;2023-10-08T14:55:09;3.57;;;0.60;;
15110;SDS011;7656;51.954;7.998;2023-10-08T14:59:33;1.77;;;1.20;;
15110;SDS011;7656;51.954;7.998;2023-10-08T15:03:54;6.80;;;0.70;;
15110;SDS011;7656;51.954;7.998;2023-10-08T15:08:15;1.43;;;0.77;;
15110;SDS011;7656;51.954;7.998;2023-10-08T15:12:39;1.50;;;0.87;;
15110;SDS011;7656;51.954;7.998;2023-10-08T15:17:00;2.50;;;0.83;;
15110;SDS011;7656;51.954;7.998;2023-10-08T15:21:22;1.77;;;0.93;;
15110;SDS011;7656;51.954;7.998;2023-10-08T15:25:44;1.10;;;0.60;;
15110;SDS011;7656;51.954;7.998;2023-10-08T15:30:09;3.03;;;0.80;;
15110;SDS011;7656;51.954;7.998;2023-10-08T15:34:41;3.43;;;0.97;;
15110;SDS011;7656;51.954;7.998;2023-10-08T15:39:03;1.53;;;1.10;;
15110;SDS011;7656;51.954;7.998;2023-10-08T15:43:25;1.63;;;0.80;;
15110;SDS011;7656;51.954;7.998;2023-10-08T15:47:47;2.87;;;0.87;;
15110;SDS011;7656;51.954;7.998;2023-10-08T15:52:11;2.33;;;1.00;;
15110;SDS011;7656;51.954;7.998;2023-10-08T15:56:35;0.83;;;0.80;;
15110;SDS011;7656;51.954;7.998;2023-10-08T16:00:56;1.60;;;1.00;;
15110;SDS011;7656;51.954;7.998;2023-10-08T16:05:17;1.53;;;1.00;;
15110;SDS011;7656;51.954;7.998;2023-10-08T16:09:38;1.50;;;1.13;;
15110;SDS011;7656;51.954;7.998;2023-10-08T16:14:01;1.50;;;0.83;;
15110;SDS011;7656;51.954;7.998;2023-10-08T16:18:22;1.90;;;0.93;;
15110;SDS011;7656;51.954;7.998;2023-10-08T16:22:44;1.13;;;0.70;;
15110;SDS011;7656;51.954;7.998;2023-10-08T16:27:07;2.23;;;1.07;;
15110;SDS011;7656;51.954;7.998;2023-10-08T16:31:28;1.30;;;1.00;;
15110;SDS011;7656;51.954;7.998;2023-10-08T16:35:51;3.60;;;1.13;;
15110;SDS011;7656;51.954;7.998;2023-10-08T16:40:12;4.27;;;0.90;;
15110;SDS011;7656;51.954;7.998;2023-10-08T16:44:34;1.90;;;0.80;;
15110;SDS011;7656;51.954;7.998;2023-10-08T16:48:55;2.30;;;1.00;;
15110;SDS011;7656;51.954;7.998;2023-10-08T16:53:16;3.80;;;1.13;;
15110;SDS011;7656;51.954;7.998;2023-10-08T16:57:37;2.67;;;1.20;;
15110;SDS011;7656;51.954;7.998;2023-10-08T17:01:58;4.70;;;1.20;;
15110;SDS011;7656;51.954;7.998;2023-10-08T17:06:19;4.13;;;1.00;;
15110;SDS011;7656;51.954;7.998;2023-10-08T17:10:40;1.67;;;0.70;;
15110;SDS011;7656;51.954;7.998;2023-10-08T17:15:01;0.90;;;0.77;;
15110;SDS011;7656;51.954;7.998;2023-10-08T17:19:25;2.50;;;2.40;;
15110;SDS011;7656;51.954;7.998;2023-10-08T17:23:47;1.93;;;0.90;;
15110;SDS011;7656;51.954;7.998;2023-10-08T17:28:08;2.87;;;1.00;;
15110;SDS011;7656;51.954;7.998;2023-10-08T17:32:30;2.10;;;1.00;;
15110;SDS011;7656;51.954;7.998;2023-10-08T17:36:51;2.00;;;0.60;;
15110;SDS011;7656;51.954;7.998;2023-10-08T17:41:14;2.73;;;0.90;;
15110;SDS011;7656;51.954;7.998;2023-10-08T17:45:35;2.13;;;0.80;;
15110;SDS011;7656;51.954;7.998;2023-10-08T17:49:56;2.43;;;0.90;;
15110;SDS011;7656;51.954;7.998;2023-10-08T17:54:17;1.10;;;0.77;;
15110;SDS011;7656;51.954;7.998;2023-10-08T17:58:38;3.57;;;1.33;;
15110;SDS011;7656;51.954;7.998;2023-10-08T18:02:59;2.87;;;1.03;;
15110;SDS011;7656;51.954;7.998;2023-10-08T18:07:21;1.37;;;0.97;;
15110;SDS011;7656;51.954;7.998;2023-10-08T18:11:42;2.60;;;1.10;;
15110;SDS011;7656;51.954;7.998;2023-10-08T18:16:04;2.20;;;1.07;;
15110;SDS011;7656;51.954;7.998;2023-10-08T18:20:25;2.83;;;1.10;;
15110;SDS011;7656;51.954;7.998;2023-10-08T18:24:56;5.83;;;1.40;;
15110;SDS011;7656;51.954;7.998;2023-10-08T18:29:17;2.83;;;1.33;;
15110;SDS011;7656;51.954;7.998;2023-10-08T18:33:39;1.53;;;1.03;;
15110;SDS011;7656;51.954;7.998;2023-10-08T18:38:04;4.27;;;1.50;;
15110;SDS011;7656;51.954;7.998;2023-10-08T18:42:26;2.40;;;1.10;;
15110;SDS011;7656;51.954;7.998;2023-10-08T18:46:48;3.73;;;1.03;;
15110;SDS011;7656;51.954;7.998;2023-10-08T18:51:10;4.10;;;1.20;;
15110;SDS011;7656;51.954;7.998;2023-10-08T18:55:33;4.60;;;1.40;;
15110;SDS011;7656;51.954;7.998;2023-10-08T18:59:54;2.90;;;1.10;;
15110;SDS011;7656;51.954;7.998;2023-10-08T19:04:15;5.30;;;1.13;;
15110;SDS011;7656;51.954;7.998;2023-10-08T19:08:37;3.17;;;1.50;;
15110;SDS011;7656;51.954;7.998;2023-10-08T19:12:59;3.33;;;1.30;;
15110;SDS011;7656;51.954;7.998;2023-10-08T19:17:21;2.00;;;1.40;;
15110;SDS011;7656;51.954;7.998;2023-10-08T19:21:43;3.03;;;1.40;;
15110;SDS011;7656;51.954;7.998;2023-10-08T19:26:04;3.13;;;1.20;;
15110;SDS011;7656;51.954;7.998;2023-10-08T19:30:31;2.73;;;1.30;;
15110;SDS011;7656;51.954;7.998;2023-10-08T19:34:53;3.37;;;1.33;;
15110;SDS011;7656;51.954;7.998;2023-10-08T19:39:14;4.10;;;1.30;;
15110;SDS011;7656;51.954;7.998;2023-10-08T19:43:36;2.30;;;1.10;;
15110;SDS011;7656;51.954;7.998;2023-10-08T19:47:58;3.83;;;1.50;;
15110;SDS011;7656;51.954;7.998;2023-10-08T19:52:19;1.60;;;1.10;;
15110;SDS011;7656;51.954;7.998;2023-10-08T19:56:40;2.10;;;1.30;;
15110;SDS011;7656;51.954;7.998;2023-10-08T20:01:01;3.47;;;1.00;;
15110;SDS011;7656;51.954;7.998;2023-10-08T20:05:23;2.67;;;1.20;;
15110;SDS011;7656;51.954;7.998;2023-10-08T20:09:44;1.33;;;1.20;;
15110;SDS011;7656;51.954;7.998;2023-10-08T20:14:07;2.90;;;1.17;;
15110;SDS011;7656;51.954;7.998;2023-10-08T20:18:28;3.43;;;1.43;;
15110;SDS011;7656;51.954;7.998;2023-10-08T20:22:51;1.93;;;1.10;;
15110;SDS011;7656;51.954;7.998;2023-10-08T20:27:14;6.50;;;1.47;;
15110;SDS011;7656;51.954;7.998;2023-10-08T20:31:35;6.93;;;1.33;;
15110;SDS011;7656;51.954;7.998;2023-10-08T20:35:56;1.40;;;1.10;;
15110;SDS011;7656;51.954;7.998;2023-10-08T20:40:18;3.97;;;1.70;;
15110;SDS011;7656;51.954;7.998;2023-10-08T20:44:45;1.73;;;1.07;;
15110;SDS011;7656;51.954;7.998;2023-10-08T20:49:06;2.97;;;1.53;;
15110;SDS011;7656;51.954;7.998;2023-10-08T20:53:28;3.13;;;1.20;;
15110;SDS011;7656;51.954;7.998;2023-10-08T20:57:49;1.40;;;1.10;;
15110;SDS011;7656;51.954;7.998;2023-10-08T21:02:11;3.63;;;1.60;;
15110;SDS011;7656;51.954;7.998;2023-10-08T21:06:32;1.90;;;1.30;;
15110;SDS011;7656;51.954;7.998;2023-10-08T21:10:53;2.77;;;1.40;;
15110;SDS011;7656;51.954;7.998;2023-10-08T21:15:14;2.83;;;1.37;;
15110;SDS011;7656;51.954;7.998;2023-10-08T21:19:40;5.07;;;2.13;;
15110;SDS011;7656;51.954;7.998;2023-10-08T21:24:01;2.93;;;1.80;;
15110;SDS011;7656;51.954;7.998;2023-10-08T21:28:22;2.17;;;1.27;;
15110;SDS011;7656;51.954;7.998;2023-10-08T21:32:43;2.37;;;1.60;;
15110;SDS011;7656;51.954;7.998;2023-10-08T21:37:07;2.93;;;1.80;;
15110;SDS011;7656;51.954;7.998;2023-10-08T21:41:30;2.93;;;2.10;;
15110;SDS011;7656;51.954;7.998;2023-10-08T21:45:52;2.30;;;1.47;;
15110;SDS011;7656;51.954;7.998;2023-10-08T21:50:14;2.60;;;1.60;;
15110;SDS011;7656;51.954;7.998;2023-10-08T21:54:37;3.93;;;1.70;;
15110;SDS011;7656;51.954;7.998;2023-10-08T21:58:58;5.77;;;2.30;;
15110;SDS011;7656;51.954;7.998;2023-10-08T22:03:19;2.23;;;1.70;;
15110;SDS011;7656;51.954;7.998;2023-10-08T22:07:41;2.13;;;1.43;;
15110;SDS011;7656;51.954;7.998;2023-10-08T22:12:02;2.50;;;1.80;;
15110;SDS011;7656;51.954;7.998;2023-10-08T22:16:26;2.00;;;1.83;;
15110;SDS011;7656;51.954;7.998;2023-10-08T22:20:52;4.07;;;1.67;;
15110;SDS011;7656;51.954;7.998;2023-10-08T22:25:14;1.80;;;1.50;;
15110;SDS011;7656;51.954;7.998;2023-10-08T22:29:35;4.07;;;1.70;;
15110;SDS011;7656;51.954;7.998;2023-10-08T22:33:57;3.53;;;1.73;;
15110;SDS011;7656;51.954;7.998;2023-10-08T22:38:24;1.77;;;1.63;;
15110;SDS011;7656;51.954;7.998;2023-10-08T22:42:49;1.30;;;1.20;;
15110;SDS011;7656;51.954;7.998;2023-10-08T22:47:10;3.40;;;1.77;;
15110;SDS011;7656;51.954;7.998;2023-10-08T22:51:31;4.00;;;1.90;;
15110;SDS011;7656;51.954;7.998;2023-10-08T22:55:59;2.60;;;1.90;;
15110;SDS011;7656;51.954;7.998;2023-10-08T23:00:21;1.50;;;1.40;;
15110;SDS011;7656;51.954;7.998;2023-10-08T23:04:46;3.57;;;1.67;;
15110;SDS011;7656;51.954;7.998;2023-10-08T23:09:08;3.50;;;2.17;;
15110;SDS011;7656;51.954;7.998;2023-10-08T23:13:34;2.67;;;2.43;;
15110;SDS011;7656;51.954;7.998;2023-10-08T23:17:56;1.80;;;1.60;;
15110;SDS011;7656;51.954;7.998;2023-10-08T23:22:17;2.50;;;1.60;;
15110;SDS011;7656;51.954;7.998;2023-10-08T23:26:38;1.77;;;1.50;;
15110;SDS011;7656;51.954;7.998;2023-10-08T23:31:01;2.37;;;1.63;;
15110;SDS011;7656;51.954;7.998;2023-10-08T23:35:29;3.47;;;1.53;;
15110;SDS011;7656;51.954;7.998;2023-10-08T23:39:50;2.87;;;1.57;;
15110;SDS011;7656;51.954;7.998;2023-10-08T23:44:18;4.30;;;1.97;;
15110;SDS011;7656;51.954;7.998;2023-10-08T23:48:46;1.90;;;1.60;;
15110;SDS011;7656;51.954;7.998;2023-10-08T23:53:14;4.63;;;2.00;;
15110;SDS011;7656;51.954;7.998;2023-10-08T23:57:51;1.87;;;1.70;;
